Fort Eustis, Felker Army Air Field (KFAF)

NameFelker Army Air Field
CityFort Eustis
CountryUnited States
ICAOKFAF
IATAFAF
Altitude4 m
CoordinatesGoogle Map
Live Air TrafficLiveATC.net
METARKFAF 131956Z AUTO 04003KT 10SM FEW080 SCT200 23/18 A2999 RMK AO2 SLP159 T02280181 $
2019-10-13 19:56:00 Wind: North-Northeast (40°) 1.54 m/s - Visibility: 16093.4 m - Temperature: 23 °C - Dew point: 18 °C - Humidity: 73.5% - Pressure: 1015.58 hPa
Statistics

The table below shows the detailed information of all flights to/from Fort Eustis, Felker Army Air Field (KFAF).